sensor_id;sensor_type;location;lat;lon;timestamp;P1;durP1;ratioP1;P2;durP2;ratioP2
908;SDS011;441;51.192;6.788;2024-03-08T00:00:58;21.83;;;20.93;;
908;SDS011;441;51.192;6.788;2024-03-08T00:03:25;23.17;;;22.17;;
908;SDS011;441;51.192;6.788;2024-03-08T00:05:54;22.60;;;21.70;;
908;SDS011;441;51.192;6.788;2024-03-08T00:08:21;23.33;;;22.33;;
908;SDS011;441;51.192;6.788;2024-03-08T00:10:49;22.20;;;21.30;;
908;SDS011;441;51.192;6.788;2024-03-08T00:13:15;25.67;;;24.67;;
908;SDS011;441;51.192;6.788;2024-03-08T00:15:42;23.37;;;22.37;;
908;SDS011;441;51.192;6.788;2024-03-08T00:18:09;22.90;;;21.90;;
908;SDS011;441;51.192;6.788;2024-03-08T00:20:36;23.87;;;22.83;;
908;SDS011;441;51.192;6.788;2024-03-08T00:23:03;23.40;;;22.40;;
908;SDS011;441;51.192;6.788;2024-03-08T00:25:30;22.63;;;21.73;;
908;SDS011;441;51.192;6.788;2024-03-08T00:27:58;22.40;;;21.40;;
908;SDS011;441;51.192;6.788;2024-03-08T00:30:25;22.30;;;21.40;;
908;SDS011;441;51.192;6.788;2024-03-08T00:32:51;22.10;;;21.20;;
908;SDS011;441;51.192;6.788;2024-03-08T00:35:18;22.00;;;21.00;;
908;SDS011;441;51.192;6.788;2024-03-08T00:37:45;22.00;;;21.00;;
908;SDS011;441;51.192;6.788;2024-03-08T00:40:12;21.77;;;20.87;;
908;SDS011;441;51.192;6.788;2024-03-08T00:42:39;21.63;;;20.73;;
908;SDS011;441;51.192;6.788;2024-03-08T00:45:08;21.30;;;20.40;;
908;SDS011;441;51.192;6.788;2024-03-08T00:47:35;22.60;;;21.70;;
908;SDS011;441;51.192;6.788;2024-03-08T00:50:02;22.30;;;21.30;;
908;SDS011;441;51.192;6.788;2024-03-08T00:52:29;22.57;;;21.57;;
908;SDS011;441;51.192;6.788;2024-03-08T00:54:56;21.83;;;20.93;;
908;SDS011;441;51.192;6.788;2024-03-08T00:57:23;21.87;;;20.97;;
908;SDS011;441;51.192;6.788;2024-03-08T00:59:50;21.57;;;20.67;;
908;SDS011;441;51.192;6.788;2024-03-08T01:02:19;21.90;;;21.00;;
908;SDS011;441;51.192;6.788;2024-03-08T01:04:48;21.90;;;21.00;;
908;SDS011;441;51.192;6.788;2024-03-08T01:07:15;21.70;;;20.80;;
908;SDS011;441;51.192;6.788;2024-03-08T01:09:42;22.20;;;21.20;;
908;SDS011;441;51.192;6.788;2024-03-08T01:12:09;21.57;;;20.67;;
908;SDS011;441;51.192;6.788;2024-03-08T01:14:36;21.83;;;20.93;;
908;SDS011;441;51.192;6.788;2024-03-08T01:17:02;22.33;;;21.33;;
908;SDS011;441;51.192;6.788;2024-03-08T01:19:31;20.73;;;19.93;;
908;SDS011;441;51.192;6.788;2024-03-08T01:21:58;21.90;;;21.00;;
908;SDS011;441;51.192;6.788;2024-03-08T01:24:25;22.47;;;21.47;;
908;SDS011;441;51.192;6.788;2024-03-08T01:26:51;22.37;;;21.47;;
908;SDS011;441;51.192;6.788;2024-03-08T01:29:18;23.00;;;22.00;;
908;SDS011;441;51.192;6.788;2024-03-08T01:31:45;21.40;;;20.50;;
908;SDS011;441;51.192;6.788;2024-03-08T01:34:11;21.63;;;20.80;;
908;SDS011;441;51.192;6.788;2024-03-08T01:36:39;21.83;;;20.90;;
908;SDS011;441;51.192;6.788;2024-03-08T01:39:06;22.53;;;21.60;;
908;SDS011;441;51.192;6.788;2024-03-08T01:41:34;22.43;;;21.53;;
908;SDS011;441;51.192;6.788;2024-03-08T01:44:01;22.17;;;21.27;;
908;SDS011;441;51.192;6.788;2024-03-08T01:46:28;21.70;;;20.80;;
908;SDS011;441;51.192;6.788;2024-03-08T01:48:56;21.70;;;20.77;;
908;SDS011;441;51.192;6.788;2024-03-08T01:51:23;21.90;;;21.00;;
908;SDS011;441;51.192;6.788;2024-03-08T01:53:51;21.67;;;20.77;;
908;SDS011;441;51.192;6.788;2024-03-08T01:56:18;21.90;;;20.90;;
908;SDS011;441;51.192;6.788;2024-03-08T01:58:45;22.23;;;21.23;;
908;SDS011;441;51.192;6.788;2024-03-08T02:01:12;21.47;;;20.67;;
908;SDS011;441;51.192;6.788;2024-03-08T02:03:40;22.30;;;21.33;;
908;SDS011;441;51.192;6.788;2024-03-08T02:06:08;21.50;;;20.70;;
908;SDS011;441;51.192;6.788;2024-03-08T02:08:35;22.50;;;21.50;;
908;SDS011;441;51.192;6.788;2024-03-08T02:11:04;22.00;;;21.20;;
908;SDS011;441;51.192;6.788;2024-03-08T02:13:31;22.43;;;21.53;;
908;SDS011;441;51.192;6.788;2024-03-08T02:15:59;22.00;;;21.10;;
908;SDS011;441;51.192;6.788;2024-03-08T02:18:27;21.80;;;20.90;;
908;SDS011;441;51.192;6.788;2024-03-08T02:20:56;22.30;;;21.37;;
908;SDS011;441;51.192;6.788;2024-03-08T02:23:24;21.17;;;20.37;;
908;SDS011;441;51.192;6.788;2024-03-08T02:25:51;22.87;;;21.97;;
908;SDS011;441;51.192;6.788;2024-03-08T02:28:19;22.53;;;21.63;;
908;SDS011;441;51.192;6.788;2024-03-08T02:30:46;22.30;;;21.40;;
908;SDS011;441;51.192;6.788;2024-03-08T02:33:13;21.73;;;20.93;;
908;SDS011;441;51.192;6.788;2024-03-08T02:35:41;22.33;;;21.43;;
908;SDS011;441;51.192;6.788;2024-03-08T02:38:12;21.90;;;21.00;;
908;SDS011;441;51.192;6.788;2024-03-08T02:40:41;22.03;;;21.13;;
908;SDS011;441;51.192;6.788;2024-03-08T02:43:08;22.27;;;21.40;;
908;SDS011;441;51.192;6.788;2024-03-08T02:45:34;22.40;;;21.40;;
908;SDS011;441;51.192;6.788;2024-03-08T02:48:01;21.90;;;21.00;;
908;SDS011;441;51.192;6.788;2024-03-08T02:50:28;22.03;;;21.13;;
908;SDS011;441;51.192;6.788;2024-03-08T02:52:55;22.03;;;21.03;;
908;SDS011;441;51.192;6.788;2024-03-08T02:55:23;22.20;;;21.20;;
908;SDS011;441;51.192;6.788;2024-03-08T02:57:51;21.50;;;20.60;;
908;SDS011;441;51.192;6.788;2024-03-08T03:00:19;22.60;;;21.60;;
908;SDS011;441;51.192;6.788;2024-03-08T03:02:48;21.80;;;20.90;;
908;SDS011;441;51.192;6.788;2024-03-08T03:05:17;26.60;;;25.40;;
908;SDS011;441;51.192;6.788;2024-03-08T03:07:43;23.30;;;22.30;;
908;SDS011;441;51.192;6.788;2024-03-08T03:10:10;24.50;;;23.40;;
908;SDS011;441;51.192;6.788;2024-03-08T03:12:43;23.23;;;22.23;;
908;SDS011;441;51.192;6.788;2024-03-08T03:15:10;23.77;;;22.77;;
908;SDS011;441;51.192;6.788;2024-03-08T03:17:37;23.43;;;22.53;;
908;SDS011;441;51.192;6.788;2024-03-08T03:20:05;23.00;;;22.10;;
908;SDS011;441;51.192;6.788;2024-03-08T03:22:36;22.80;;;21.90;;
908;SDS011;441;51.192;6.788;2024-03-08T03:25:03;23.50;;;22.60;;
908;SDS011;441;51.192;6.788;2024-03-08T03:27:31;23.13;;;22.13;;
908;SDS011;441;51.192;6.788;2024-03-08T03:29:59;23.47;;;22.47;;
908;SDS011;441;51.192;6.788;2024-03-08T03:32:45;23.80;;;22.80;;
908;SDS011;441;51.192;6.788;2024-03-08T03:35:12;23.40;;;22.40;;
908;SDS011;441;51.192;6.788;2024-03-08T03:37:40;22.07;;;21.07;;
908;SDS011;441;51.192;6.788;2024-03-08T03:40:10;22.50;;;21.50;;
908;SDS011;441;51.192;6.788;2024-03-08T03:42:38;22.47;;;21.47;;
908;SDS011;441;51.192;6.788;2024-03-08T03:45:06;21.93;;;21.10;;
908;SDS011;441;51.192;6.788;2024-03-08T03:47:35;22.03;;;21.13;;
908;SDS011;441;51.192;6.788;2024-03-08T03:50:03;22.03;;;21.03;;
908;SDS011;441;51.192;6.788;2024-03-08T03:52:30;21.93;;;20.90;;
908;SDS011;441;51.192;6.788;2024-03-08T03:54:57;22.73;;;21.73;;
908;SDS011;441;51.192;6.788;2024-03-08T03:57:24;22.30;;;21.37;;
908;SDS011;441;51.192;6.788;2024-03-08T03:59:50;22.30;;;21.30;;
908;SDS011;441;51.192;6.788;2024-03-08T04:02:18;23.00;;;22.00;;
908;SDS011;441;51.192;6.788;2024-03-08T04:04:46;22.80;;;21.90;;
908;SDS011;441;51.192;6.788;2024-03-08T04:07:12;22.73;;;21.83;;
908;SDS011;441;51.192;6.788;2024-03-08T04:09:39;22.63;;;21.73;;
908;SDS011;441;51.192;6.788;2024-03-08T04:12:06;23.03;;;22.03;;
908;SDS011;441;51.192;6.788;2024-03-08T04:14:34;23.30;;;22.40;;
908;SDS011;441;51.192;6.788;2024-03-08T04:17:01;23.33;;;22.33;;
908;SDS011;441;51.192;6.788;2024-03-08T04:19:29;23.20;;;22.30;;
908;SDS011;441;51.192;6.788;2024-03-08T04:21:56;23.70;;;22.70;;
908;SDS011;441;51.192;6.788;2024-03-08T04:24:23;23.47;;;22.47;;
908;SDS011;441;51.192;6.788;2024-03-08T04:26:50;22.33;;;21.43;;
908;SDS011;441;51.192;6.788;2024-03-08T04:29:18;22.37;;;21.47;;
908;SDS011;441;51.192;6.788;2024-03-08T04:31:45;23.70;;;22.60;;
908;SDS011;441;51.192;6.788;2024-03-08T04:34:12;22.77;;;21.87;;
908;SDS011;441;51.192;6.788;2024-03-08T04:36:41;22.83;;;21.93;;
908;SDS011;441;51.192;6.788;2024-03-08T04:39:07;22.97;;;22.07;;
908;SDS011;441;51.192;6.788;2024-03-08T04:41:37;22.57;;;21.60;;
908;SDS011;441;51.192;6.788;2024-03-08T04:44:04;23.40;;;22.30;;
908;SDS011;441;51.192;6.788;2024-03-08T04:46:31;22.87;;;21.97;;
908;SDS011;441;51.192;6.788;2024-03-08T04:49:00;23.60;;;22.60;;
908;SDS011;441;51.192;6.788;2024-03-08T04:51:27;23.67;;;22.67;;
908;SDS011;441;51.192;6.788;2024-03-08T04:53:55;22.90;;;22.00;;
908;SDS011;441;51.192;6.788;2024-03-08T04:56:22;22.90;;;22.00;;
908;SDS011;441;51.192;6.788;2024-03-08T04:58:48;23.27;;;22.27;;
908;SDS011;441;51.192;6.788;2024-03-08T05:01:15;23.63;;;22.53;;
908;SDS011;441;51.192;6.788;2024-03-08T05:03:42;23.23;;;22.23;;
908;SDS011;441;51.192;6.788;2024-03-08T05:06:09;24.47;;;23.47;;
908;SDS011;441;51.192;6.788;2024-03-08T05:08:35;24.47;;;23.40;;
908;SDS011;441;51.192;6.788;2024-03-08T05:11:03;24.40;;;23.40;;
908;SDS011;441;51.192;6.788;2024-03-08T05:13:32;24.47;;;23.47;;
908;SDS011;441;51.192;6.788;2024-03-08T05:15:59;24.87;;;23.77;;
908;SDS011;441;51.192;6.788;2024-03-08T05:18:26;24.37;;;23.37;;
908;SDS011;441;51.192;6.788;2024-03-08T05:20:53;25.73;;;24.63;;
908;SDS011;441;51.192;6.788;2024-03-08T05:23:20;24.60;;;23.60;;
908;SDS011;441;51.192;6.788;2024-03-08T05:25:47;24.73;;;23.67;;
908;SDS011;441;51.192;6.788;2024-03-08T05:28:15;24.00;;;23.00;;
908;SDS011;441;51.192;6.788;2024-03-08T05:30:42;24.67;;;23.67;;
908;SDS011;441;51.192;6.788;2024-03-08T05:33:09;25.10;;;24.00;;
908;SDS011;441;51.192;6.788;2024-03-08T05:35:36;25.40;;;24.30;;
908;SDS011;441;51.192;6.788;2024-03-08T05:38:03;25.40;;;24.30;;
908;SDS011;441;51.192;6.788;2024-03-08T05:40:30;24.50;;;23.50;;
908;SDS011;441;51.192;6.788;2024-03-08T05:42:57;23.37;;;22.47;;
908;SDS011;441;51.192;6.788;2024-03-08T05:45:25;23.93;;;22.93;;
908;SDS011;441;51.192;6.788;2024-03-08T05:47:52;24.43;;;23.43;;
908;SDS011;441;51.192;6.788;2024-03-08T05:50:19;24.83;;;23.80;;
908;SDS011;441;51.192;6.788;2024-03-08T05:52:46;24.37;;;23.40;;
908;SDS011;441;51.192;6.788;2024-03-08T05:55:14;25.87;;;24.80;;
908;SDS011;441;51.192;6.788;2024-03-08T05:57:41;24.50;;;23.50;;
908;SDS011;441;51.192;6.788;2024-03-08T06:00:08;24.77;;;23.77;;
908;SDS011;441;51.192;6.788;2024-03-08T06:02:38;25.60;;;24.50;;
908;SDS011;441;51.192;6.788;2024-03-08T06:05:07;24.33;;;23.23;;
908;SDS011;441;51.192;6.788;2024-03-08T06:07:34;25.00;;;23.90;;
908;SDS011;441;51.192;6.788;2024-03-08T06:10:01;24.53;;;23.43;;
908;SDS011;441;51.192;6.788;2024-03-08T06:12:28;25.63;;;24.53;;
908;SDS011;441;51.192;6.788;2024-03-08T06:14:58;26.40;;;25.20;;
908;SDS011;441;51.192;6.788;2024-03-08T06:17:25;26.40;;;25.17;;
908;SDS011;441;51.192;6.788;2024-03-08T06:19:53;24.70;;;23.67;;
908;SDS011;441;51.192;6.788;2024-03-08T06:22:20;25.33;;;24.13;;
908;SDS011;441;51.192;6.788;2024-03-08T06:24:47;25.03;;;23.83;;
908;SDS011;441;51.192;6.788;2024-03-08T06:27:13;25.30;;;23.90;;
908;SDS011;441;51.192;6.788;2024-03-08T06:29:40;25.33;;;24.23;;
908;SDS011;441;51.192;6.788;2024-03-08T06:32:07;25.53;;;24.43;;
908;SDS011;441;51.192;6.788;2024-03-08T06:34:33;25.57;;;24.47;;
908;SDS011;441;51.192;6.788;2024-03-08T06:37:01;24.80;;;23.70;;
908;SDS011;441;51.192;6.788;2024-03-08T06:39:28;24.90;;;23.80;;
908;SDS011;441;51.192;6.788;2024-03-08T06:41:56;25.80;;;24.70;;
908;SDS011;441;51.192;6.788;2024-03-08T06:44:23;27.73;;;26.33;;
908;SDS011;441;51.192;6.788;2024-03-08T06:46:50;29.63;;;27.47;;
908;SDS011;441;51.192;6.788;2024-03-08T06:49:17;31.43;;;29.13;;
908;SDS011;441;51.192;6.788;2024-03-08T06:51:44;32.87;;;30.10;;
908;SDS011;441;51.192;6.788;2024-03-08T06:54:12;34.97;;;31.23;;
908;SDS011;441;51.192;6.788;2024-03-08T06:56:39;30.33;;;28.20;;
908;SDS011;441;51.192;6.788;2024-03-08T06:59:06;29.90;;;27.60;;
908;SDS011;441;51.192;6.788;2024-03-08T07:01:35;31.90;;;28.67;;
908;SDS011;441;51.192;6.788;2024-03-08T07:04:03;29.53;;;27.00;;
908;SDS011;441;51.192;6.788;2024-03-08T07:06:31;30.73;;;28.20;;
908;SDS011;441;51.192;6.788;2024-03-08T07:08:59;27.83;;;25.97;;
908;SDS011;441;51.192;6.788;2024-03-08T07:11:27;29.23;;;27.50;;
908;SDS011;441;51.192;6.788;2024-03-08T07:13:54;28.90;;;27.07;;
908;SDS011;441;51.192;6.788;2024-03-08T07:16:20;28.53;;;26.73;;
908;SDS011;441;51.192;6.788;2024-03-08T07:18:47;29.00;;;26.70;;
908;SDS011;441;51.192;6.788;2024-03-08T07:21:17;30.20;;;27.60;;
908;SDS011;441;51.192;6.788;2024-03-08T07:23:44;28.70;;;26.80;;
908;SDS011;441;51.192;6.788;2024-03-08T07:26:31;29.93;;;27.90;;
908;SDS011;441;51.192;6.788;2024-03-08T07:28:57;30.10;;;28.17;;
908;SDS011;441;51.192;6.788;2024-03-08T07:31:25;29.07;;;27.20;;
908;SDS011;441;51.192;6.788;2024-03-08T07:33:59;30.97;;;28.70;;
908;SDS011;441;51.192;6.788;2024-03-08T07:36:28;30.57;;;28.47;;
908;SDS011;441;51.192;6.788;2024-03-08T07:38:55;29.40;;;27.40;;
908;SDS011;441;51.192;6.788;2024-03-08T07:41:22;30.73;;;28.53;;
908;SDS011;441;51.192;6.788;2024-03-08T07:43:50;29.20;;;27.50;;
908;SDS011;441;51.192;6.788;2024-03-08T07:46:17;28.73;;;26.97;;
908;SDS011;441;51.192;6.788;2024-03-08T07:48:43;30.00;;;27.90;;
908;SDS011;441;51.192;6.788;2024-03-08T07:51:11;29.13;;;27.30;;
908;SDS011;441;51.192;6.788;2024-03-08T07:53:38;30.20;;;28.30;;
908;SDS011;441;51.192;6.788;2024-03-08T07:56:06;29.50;;;27.90;;
908;SDS011;441;51.192;6.788;2024-03-08T07:58:34;29.27;;;27.50;;
908;SDS011;441;51.192;6.788;2024-03-08T08:01:02;31.27;;;28.73;;
908;SDS011;441;51.192;6.788;2024-03-08T08:03:29;29.00;;;27.40;;
908;SDS011;441;51.192;6.788;2024-03-08T08:05:56;30.57;;;28.40;;
908;SDS011;441;51.192;6.788;2024-03-08T08:08:23;30.10;;;28.50;;
908;SDS011;441;51.192;6.788;2024-03-08T08:10:51;28.93;;;27.13;;
908;SDS011;441;51.192;6.788;2024-03-08T08:13:17;28.80;;;27.13;;
908;SDS011;441;51.192;6.788;2024-03-08T08:15:44;28.03;;;26.40;;
908;SDS011;441;51.192;6.788;2024-03-08T08:18:12;28.80;;;26.97;;
908;SDS011;441;51.192;6.788;2024-03-08T08:20:39;27.40;;;25.83;;
908;SDS011;441;51.192;6.788;2024-03-08T08:23:05;27.97;;;26.27;;
908;SDS011;441;51.192;6.788;2024-03-08T08:25:33;29.60;;;27.90;;
908;SDS011;441;51.192;6.788;2024-03-08T08:28:00;27.90;;;26.27;;
908;SDS011;441;51.192;6.788;2024-03-08T08:30:29;27.37;;;25.77;;
908;SDS011;441;51.192;6.788;2024-03-08T08:32:58;28.03;;;26.20;;
908;SDS011;441;51.192;6.788;2024-03-08T08:35:27;27.63;;;26.10;;
908;SDS011;441;51.192;6.788;2024-03-08T08:37:54;28.87;;;27.27;;
908;SDS011;441;51.192;6.788;2024-03-08T08:40:22;28.87;;;27.30;;
908;SDS011;441;51.192;6.788;2024-03-08T08:42:49;28.03;;;26.63;;
908;SDS011;441;51.192;6.788;2024-03-08T08:45:16;29.17;;;27.47;;
908;SDS011;441;51.192;6.788;2024-03-08T08:47:43;28.17;;;26.53;;
908;SDS011;441;51.192;6.788;2024-03-08T08:50:10;27.57;;;26.17;;
908;SDS011;441;51.192;6.788;2024-03-08T08:52:38;29.27;;;27.33;;
908;SDS011;441;51.192;6.788;2024-03-08T08:55:06;27.40;;;25.90;;
908;SDS011;441;51.192;6.788;2024-03-08T08:57:32;29.37;;;27.80;;
908;SDS011;441;51.192;6.788;2024-03-08T09:00:00;28.30;;;26.90;;
908;SDS011;441;51.192;6.788;2024-03-08T09:02:27;28.53;;;27.03;;
908;SDS011;441;51.192;6.788;2024-03-08T09:04:54;28.13;;;26.50;;
908;SDS011;441;51.192;6.788;2024-03-08T09:07:21;27.27;;;25.67;;
908;SDS011;441;51.192;6.788;2024-03-08T09:09:50;27.07;;;25.57;;
908;SDS011;441;51.192;6.788;2024-03-08T09:12:17;27.20;;;25.70;;
908;SDS011;441;51.192;6.788;2024-03-08T09:14:43;27.77;;;26.27;;
908;SDS011;441;51.192;6.788;2024-03-08T09:17:10;27.27;;;25.77;;
908;SDS011;441;51.192;6.788;2024-03-08T09:19:37;25.70;;;24.40;;
908;SDS011;441;51.192;6.788;2024-03-08T09:22:04;28.10;;;26.60;;
908;SDS011;441;51.192;6.788;2024-03-08T09:24:31;27.53;;;26.13;;
908;SDS011;441;51.192;6.788;2024-03-08T09:26:59;29.60;;;27.80;;
908;SDS011;441;51.192;6.788;2024-03-08T09:29:26;27.13;;;25.63;;
908;SDS011;441;51.192;6.788;2024-03-08T09:31:53;28.63;;;27.20;;
908;SDS011;441;51.192;6.788;2024-03-08T09:34:20;28.10;;;26.63;;
908;SDS011;441;51.192;6.788;2024-03-08T09:36:46;26.90;;;25.57;;
908;SDS011;441;51.192;6.788;2024-03-08T09:39:13;28.10;;;26.70;;
908;SDS011;441;51.192;6.788;2024-03-08T09:41:41;26.87;;;25.43;;
908;SDS011;441;51.192;6.788;2024-03-08T09:44:10;27.53;;;25.93;;
908;SDS011;441;51.192;6.788;2024-03-08T09:46:37;28.87;;;27.00;;
908;SDS011;441;51.192;6.788;2024-03-08T09:49:05;27.40;;;26.00;;
908;SDS011;441;51.192;6.788;2024-03-08T09:51:33;28.00;;;26.60;;
908;SDS011;441;51.192;6.788;2024-03-08T09:54:01;27.00;;;25.60;;
908;SDS011;441;51.192;6.788;2024-03-08T09:56:29;26.37;;;25.07;;
908;SDS011;441;51.192;6.788;2024-03-08T09:58:59;26.23;;;24.90;;
908;SDS011;441;51.192;6.788;2024-03-08T10:02:07;26.30;;;25.10;;
908;SDS011;441;51.192;6.788;2024-03-08T10:04:39;27.57;;;26.17;;
908;SDS011;441;51.192;6.788;2024-03-08T10:07:07;26.77;;;25.47;;
908;SDS011;441;51.192;6.788;2024-03-08T10:09:34;27.20;;;25.70;;
908;SDS011;441;51.192;6.788;2024-03-08T10:12:00;27.13;;;25.70;;
908;SDS011;441;51.192;6.788;2024-03-08T10:14:28;26.83;;;25.50;;
908;SDS011;441;51.192;6.788;2024-03-08T10:16:54;27.20;;;25.90;;
908;SDS011;441;51.192;6.788;2024-03-08T10:19:26;27.70;;;26.30;;
908;SDS011;441;51.192;6.788;2024-03-08T10:21:55;26.83;;;25.53;;
908;SDS011;441;51.192;6.788;2024-03-08T10:24:23;27.43;;;26.13;;
908;SDS011;441;51.192;6.788;2024-03-08T10:26:51;26.30;;;25.00;;
908;SDS011;441;51.192;6.788;2024-03-08T10:29:19;27.43;;;26.03;;
908;SDS011;441;51.192;6.788;2024-03-08T10:31:45;27.10;;;25.80;;
908;SDS011;441;51.192;6.788;2024-03-08T10:34:12;28.13;;;26.87;;
908;SDS011;441;51.192;6.788;2024-03-08T10:36:41;27.03;;;25.70;;
908;SDS011;441;51.192;6.788;2024-03-08T10:39:12;28.20;;;26.83;;
908;SDS011;441;51.192;6.788;2024-03-08T10:41:48;28.50;;;27.20;;
908;SDS011;441;51.192;6.788;2024-03-08T10:44:21;30.37;;;28.97;;
908;SDS011;441;51.192;6.788;2024-03-08T10:47:00;28.67;;;27.37;;
908;SDS011;441;51.192;6.788;2024-03-08T10:49:30;28.30;;;26.90;;
908;SDS011;441;51.192;6.788;2024-03-08T10:52:01;28.93;;;27.70;;
908;SDS011;441;51.192;6.788;2024-03-08T10:54:30;28.60;;;27.20;;
908;SDS011;441;51.192;6.788;2024-03-08T10:56:59;27.70;;;26.40;;
908;SDS011;441;51.192;6.788;2024-03-08T10:59:30;28.10;;;26.80;;
908;SDS011;441;51.192;6.788;2024-03-08T11:01:58;27.27;;;26.07;;
908;SDS011;441;51.192;6.788;2024-03-08T11:04:25;27.63;;;26.40;;
908;SDS011;441;51.192;6.788;2024-03-08T11:06:54;28.20;;;26.90;;
908;SDS011;441;51.192;6.788;2024-03-08T11:09:31;29.53;;;28.23;;
908;SDS011;441;51.192;6.788;2024-03-08T11:14:44;28.63;;;27.33;;
908;SDS011;441;51.192;6.788;2024-03-08T11:17:14;28.93;;;27.60;;
908;SDS011;441;51.192;6.788;2024-03-08T11:19:45;29.17;;;27.87;;
908;SDS011;441;51.192;6.788;2024-03-08T11:22:21;29.63;;;28.27;;
908;SDS011;441;51.192;6.788;2024-03-08T11:24:49;29.20;;;27.90;;
908;SDS011;441;51.192;6.788;2024-03-08T11:27:16;30.87;;;29.57;;
908;SDS011;441;51.192;6.788;2024-03-08T11:29:43;29.00;;;27.70;;
908;SDS011;441;51.192;6.788;2024-03-08T11:32:10;29.37;;;27.87;;
908;SDS011;441;51.192;6.788;2024-03-08T11:34:38;29.07;;;27.80;;
908;SDS011;441;51.192;6.788;2024-03-08T11:37:12;28.13;;;26.93;;
908;SDS011;441;51.192;6.788;2024-03-08T11:39:42;29.70;;;28.40;;
908;SDS011;441;51.192;6.788;2024-03-08T11:42:13;28.77;;;27.40;;
908;SDS011;441;51.192;6.788;2024-03-08T11:44:40;29.77;;;28.50;;
908;SDS011;441;51.192;6.788;2024-03-08T11:47:09;28.90;;;27.70;;
908;SDS011;441;51.192;6.788;2024-03-08T11:49:36;28.37;;;27.17;;
908;SDS011;441;51.192;6.788;2024-03-08T11:52:03;29.10;;;27.90;;
908;SDS011;441;51.192;6.788;2024-03-08T11:54:30;28.60;;;27.33;;
908;SDS011;441;51.192;6.788;2024-03-08T11:56:58;28.33;;;27.13;;
908;SDS011;441;51.192;6.788;2024-03-08T11:59:26;28.27;;;27.07;;
908;SDS011;441;51.192;6.788;2024-03-08T12:02:01;28.63;;;27.27;;
908;SDS011;441;51.192;6.788;2024-03-08T12:04:29;27.90;;;26.70;;
908;SDS011;441;51.192;6.788;2024-03-08T12:06:59;28.60;;;27.20;;
908;SDS011;441;51.192;6.788;2024-03-08T12:09:27;28.47;;;27.07;;
908;SDS011;441;51.192;6.788;2024-03-08T12:11:54;27.40;;;26.20;;
908;SDS011;441;51.192;6.788;2024-03-08T12:14:22;27.67;;;26.50;;
908;SDS011;441;51.192;6.788;2024-03-08T12:16:50;29.30;;;28.10;;
908;SDS011;441;51.192;6.788;2024-03-08T12:19:17;29.43;;;28.23;;
908;SDS011;441;51.192;6.788;2024-03-08T12:21:44;28.10;;;26.90;;
908;SDS011;441;51.192;6.788;2024-03-08T12:24:14;28.20;;;27.00;;
908;SDS011;441;51.192;6.788;2024-03-08T12:26:44;28.37;;;27.20;;
908;SDS011;441;51.192;6.788;2024-03-08T12:29:16;28.73;;;27.53;;
908;SDS011;441;51.192;6.788;2024-03-08T12:31:46;29.00;;;27.80;;
908;SDS011;441;51.192;6.788;2024-03-08T12:34:14;29.60;;;28.40;;
908;SDS011;441;51.192;6.788;2024-03-08T12:36:45;28.50;;;27.30;;
908;SDS011;441;51.192;6.788;2024-03-08T12:39:17;28.23;;;27.03;;
908;SDS011;441;51.192;6.788;2024-03-08T12:41:47;28.10;;;26.90;;
908;SDS011;441;51.192;6.788;2024-03-08T12:44:14;26.80;;;25.70;;
908;SDS011;441;51.192;6.788;2024-03-08T12:46:41;27.63;;;26.53;;
908;SDS011;441;51.192;6.788;2024-03-08T12:49:12;29.00;;;27.80;;
908;SDS011;441;51.192;6.788;2024-03-08T12:51:42;27.80;;;26.60;;
908;SDS011;441;51.192;6.788;2024-03-08T12:54:09;28.47;;;27.27;;
908;SDS011;441;51.192;6.788;2024-03-08T12:56:36;27.00;;;25.90;;
908;SDS011;441;51.192;6.788;2024-03-08T12:59:03;27.30;;;26.20;;
908;SDS011;441;51.192;6.788;2024-03-08T13:01:31;27.93;;;26.73;;
908;SDS011;441;51.192;6.788;2024-03-08T13:03:58;29.87;;;28.50;;
908;SDS011;441;51.192;6.788;2024-03-08T13:06:26;28.50;;;27.30;;
908;SDS011;441;51.192;6.788;2024-03-08T13:08:53;27.67;;;26.57;;
908;SDS011;441;51.192;6.788;2024-03-08T13:11:20;28.00;;;26.90;;
908;SDS011;441;51.192;6.788;2024-03-08T13:13:48;28.43;;;27.23;;
908;SDS011;441;51.192;6.788;2024-03-08T13:16:15;27.37;;;26.17;;
908;SDS011;441;51.192;6.788;2024-03-08T13:18:43;27.60;;;26.40;;
908;SDS011;441;51.192;6.788;2024-03-08T13:21:13;27.97;;;26.57;;
908;SDS011;441;51.192;6.788;2024-03-08T13:23:44;28.10;;;26.90;;
908;SDS011;441;51.192;6.788;2024-03-08T13:26:14;26.23;;;25.13;;
908;SDS011;441;51.192;6.788;2024-03-08T13:28:42;26.40;;;25.30;;
908;SDS011;441;51.192;6.788;2024-03-08T13:31:08;25.87;;;24.77;;
908;SDS011;441;51.192;6.788;2024-03-08T13:33:36;26.50;;;25.40;;
908;SDS011;441;51.192;6.788;2024-03-08T13:36:04;27.40;;;26.20;;
908;SDS011;441;51.192;6.788;2024-03-08T13:38:37;27.63;;;26.50;;
908;SDS011;441;51.192;6.788;2024-03-08T13:41:06;26.77;;;25.67;;
908;SDS011;441;51.192;6.788;2024-03-08T13:43:32;27.10;;;26.00;;
908;SDS011;441;51.192;6.788;2024-03-08T13:46:01;26.87;;;25.77;;
908;SDS011;441;51.192;6.788;2024-03-08T13:48:28;26.80;;;25.80;;
908;SDS011;441;51.192;6.788;2024-03-08T13:50:55;27.23;;;26.13;;
908;SDS011;441;51.192;6.788;2024-03-08T13:53:22;27.03;;;25.83;;
908;SDS011;441;51.192;6.788;2024-03-08T13:55:49;28.33;;;27.13;;
908;SDS011;441;51.192;6.788;2024-03-08T13:58:17;27.67;;;26.57;;
908;SDS011;441;51.192;6.788;2024-03-08T14:00:45;28.10;;;27.00;;
908;SDS011;441;51.192;6.788;2024-03-08T14:03:12;28.87;;;27.67;;
908;SDS011;441;51.192;6.788;2024-03-08T14:05:39;26.03;;;24.90;;
908;SDS011;441;51.192;6.788;2024-03-08T14:08:07;26.47;;;25.43;;
908;SDS011;441;51.192;6.788;2024-03-08T14:10:34;26.93;;;25.83;;
908;SDS011;441;51.192;6.788;2024-03-08T14:13:02;26.70;;;25.60;;
908;SDS011;441;51.192;6.788;2024-03-08T14:15:31;26.20;;;25.10;;
908;SDS011;441;51.192;6.788;2024-03-08T14:17:57;25.30;;;24.30;;
908;SDS011;441;51.192;6.788;2024-03-08T14:20:24;26.80;;;25.70;;
908;SDS011;441;51.192;6.788;2024-03-08T14:22:51;26.90;;;25.80;;
908;SDS011;441;51.192;6.788;2024-03-08T14:25:19;27.70;;;26.60;;
908;SDS011;441;51.192;6.788;2024-03-08T14:27:48;26.90;;;25.70;;
908;SDS011;441;51.192;6.788;2024-03-08T14:30:18;26.30;;;25.20;;
908;SDS011;441;51.192;6.788;2024-03-08T14:32:58;27.70;;;26.50;;
908;SDS011;441;51.192;6.788;2024-03-08T14:35:25;28.27;;;27.07;;
908;SDS011;441;51.192;6.788;2024-03-08T14:37:52;26.93;;;25.80;;
908;SDS011;441;51.192;6.788;2024-03-08T14:40:19;27.97;;;26.77;;
908;SDS011;441;51.192;6.788;2024-03-08T14:42:47;27.63;;;26.30;;
908;SDS011;441;51.192;6.788;2024-03-08T14:45:14;28.23;;;27.10;;
908;SDS011;441;51.192;6.788;2024-03-08T14:47:41;26.47;;;25.27;;
908;SDS011;441;51.192;6.788;2024-03-08T14:50:10;28.33;;;27.13;;
908;SDS011;441;51.192;6.788;2024-03-08T14:52:37;26.07;;;24.97;;
908;SDS011;441;51.192;6.788;2024-03-08T14:55:05;27.60;;;26.30;;
908;SDS011;441;51.192;6.788;2024-03-08T14:57:32;27.17;;;25.87;;
908;SDS011;441;51.192;6.788;2024-03-08T14:59:59;28.47;;;27.27;;
908;SDS011;441;51.192;6.788;2024-03-08T15:02:31;30.03;;;28.70;;
908;SDS011;441;51.192;6.788;2024-03-08T15:05:01;28.10;;;26.80;;
908;SDS011;441;51.192;6.788;2024-03-08T15:07:35;28.40;;;27.20;;
908;SDS011;441;51.192;6.788;2024-03-08T15:10:01;27.70;;;26.50;;
908;SDS011;441;51.192;6.788;2024-03-08T15:12:35;29.60;;;28.30;;
908;SDS011;441;51.192;6.788;2024-03-08T15:15:04;30.10;;;28.80;;
908;SDS011;441;51.192;6.788;2024-03-08T15:17:33;29.07;;;27.73;;
908;SDS011;441;51.192;6.788;2024-03-08T15:19:59;28.20;;;26.90;;
908;SDS011;441;51.192;6.788;2024-03-08T15:22:27;29.47;;;28.17;;